Time;durP1;ratioP1;P1;durP2;ratioP2;P2;SDS_P1;SDS_P2;PMS_P1;PMS_P2;Temp;Humidity;BMP_temperature;BMP_pressure;BME280_temperature;BME280_humidity;BME280_pressure;Samples;Min_cycle;Max_cycle;Signal;HPM_P1;HPM_P2
2023/08/22 00:00:51;;;;;;;8.30;3.42;;;;;;;15.26;88.67;102052.41;4923725;29;20035;-73
2023/08/22 00:03:17;;;;;;;;;;;;;;;15.30;88.56;102054.28;4925959;29;20768;-72
2023/08/22 00:05:43;;;;;;;4.60;2.65;;;;;;;15.30;88.30;102061.56;4896916;29;19921;-73
2023/08/22 00:08:09;;;;;;;5.30;3.20;;;;;;;15.30;89.07;102053.47;4918455;29;20042;-74
2023/08/22 00:10:36;;;;;;;;;;;;;;;15.30;89.54;102048.09;4909538;29;20054;-74
2023/08/22 00:13:03;;;;;;;5.05;2.72;;;;;;;15.28;89.21;102045.66;4887062;29;19918;-73
2023/08/22 00:15:28;;;;;;;6.40;3.25;;;;;;;15.30;88.84;102042.69;4914439;29;20426;-72
2023/08/22 00:17:54;;;;;;;;;;;;;;;15.30;89.44;102043.50;4910082;29;20139;-73
2023/08/22 00:20:22;;;;;;;4.53;2.78;;;;;;;15.27;89.15;102030.56;4917447;29;19973;-73
2023/08/22 00:22:48;;;;;;;7.28;2.72;;;;;;;15.28;89.53;102032.16;4938378;29;20039;-72
2023/08/22 00:25:14;;;;;;;4.40;3.30;;;;;;;15.29;89.31;102032.97;4889526;29;20047;-73
2023/08/22 00:27:39;;;;;;;;;;;;;;;15.33;90.01;102031.38;4904846;29;20051;-71
2023/08/22 00:30:06;;;;;;;5.30;3.00;;;;;;;15.29;89.82;102030.28;4914219;29;19914;-73
2023/08/22 00:32:31;;;;;;;4.47;2.75;;;;;;;15.30;89.29;102026.50;4920744;29;20617;-73
2023/08/22 00:34:58;;;;;;;;;;;;;;;15.32;89.46;102034.34;4925879;29;20223;-73
2023/08/22 00:37:24;;;;;;;4.68;2.67;;;;;;;15.27;89.29;102033.25;4905896;29;19922;-71
2023/08/22 00:39:49;;;;;;;;;;;;;;;15.29;88.80;102030.28;4924553;29;20098;-72
2023/08/22 00:42:15;;;;;;;5.40;2.97;;;;;;;15.25;88.67;102023.81;4900873;29;19969;-72
2023/08/22 00:44:41;;;;;;;;;;;;;;;15.27;89.05;102010.84;4897550;29;20035;-70
2023/08/22 00:47:08;;;;;;;6.13;3.40;;;;;;;15.22;88.66;102006.25;4925604;29;19939;-73
2023/08/22 00:49:35;;;;;;;4.63;3.20;;;;;;;15.23;88.09;102017.84;4902352;29;20509;-71
2023/08/22 00:52:03;;;;;;;5.75;3.22;;;;;;;15.24;88.25;102019.47;4907678;29;20043;-72
2023/08/22 00:54:30;;;;;;;6.55;3.50;;;;;;;15.23;88.63;102009.75;4923724;29;20544;-72
2023/08/22 00:56:57;;;;;;;6.38;3.35;;;;;;;15.21;89.48;102003.84;4894103;29;20860;-71
2023/08/22 00:59:25;;;;;;;6.55;3.53;;;;;;;15.24;89.43;101998.72;4909802;29;20071;-72
2023/08/22 01:01:51;;;;;;;6.15;2.90;;;;;;;15.24;89.05;102001.41;4933300;29;20049;-72
2023/08/22 01:04:17;;;;;;;4.47;3.42;;;;;;;15.25;88.75;102002.22;4921571;29;20053;-72
2023/08/22 01:06:53;;;;;;;6.03;2.90;;;;;;;15.26;88.97;101993.03;4910087;29;20042;-71
2023/08/22 01:09:31;;;;;;;4.43;2.92;;;;;;;15.25;89.10;101997.63;4897063;29;20053;-73
2023/08/22 01:12:03;;;;;;;5.32;2.45;;;;;;;15.24;88.78;101993.31;4907922;29;20031;-71
2023/08/22 01:14:32;;;;;;;7.75;3.45;;;;;;;15.25;88.63;101996.81;4909956;29;20050;-72
2023/08/22 01:16:59;;;;;;;4.93;2.70;;;;;;;15.25;88.37;101994.13;4925720;29;20035;-72
2023/08/22 01:19:25;;;;;;;;;;;;;;;15.23;88.29;101996.28;4912420;29;20118;-72
2023/08/22 01:21:52;;;;;;;9.23;3.25;;;;;;;15.17;89.32;101994.66;4926156;29;20767;-71
2023/08/22 01:24:19;;;;;;;4.03;3.42;;;;;;;15.14;88.60;101996.00;4925462;29;20082;-73
2023/08/22 01:26:45;;;;;;;;;;;;;;;15.13;88.94;102004.38;4937597;29;20122;-71
2023/08/22 01:29:17;;;;;;;6.18;3.08;;;;;;;15.09;88.60;102008.69;4930490;29;19925;-70
2023/08/22 01:31:52;;;;;;;6.60;2.70;;;;;;;15.05;87.98;102007.63;4910150;29;20039;-72
2023/08/22 01:34:35;;;;;;;5.68;2.85;;;;;;;15.02;88.55;102008.94;4899823;29;20774;-74
2023/08/22 01:37:02;;;;;;;7.80;3.35;;;;;;;14.97;88.84;101998.13;4901416;29;20666;-72
2023/08/22 01:39:31;;;;;;;4.45;3.38;;;;;;;14.95;88.87;102006.50;4906631;29;20122;-71
2023/08/22 01:41:58;;;;;;;4.20;3.05;;;;;;;14.95;88.41;102016.50;4906487;29;20053;-70
2023/08/22 01:44:28;;;;;;;7.82;4.20;;;;;;;14.88;89.56;101986.28;4923805;29;20123;-72
2023/08/22 01:46:54;;;;;;;7.22;3.28;;;;;;;14.88;89.78;101983.56;4904445;29;20038;-72
2023/08/22 01:49:20;;;;;;;;;;;;;;;14.89;89.82;101983.28;4927189;29;20586;-70
2023/08/22 01:51:46;;;;;;;5.93;2.97;;;;;;;14.86;89.35;101983.03;4925673;29;19918;-73
2023/08/22 01:54:11;;;;;;;;;;;;;;;14.87;89.75;101992.75;4945524;29;20043;-71
2023/08/22 01:56:37;;;;;;;10.57;2.90;;;;;;;14.84;90.10;101985.22;4924406;29;19919;-72
2023/08/22 01:59:03;;;;;;;;;;;;;;;14.83;90.52;101970.06;4910351;29;20044;-73
2023/08/22 02:01:29;;;;;;;6.00;4.10;;;;;;;14.81;90.59;101975.75;4902740;29;19919;-71
2023/08/22 02:03:54;;;;;;;;;;;;;;;14.84;90.31;101980.63;4906669;29;20047;-73
2023/08/22 02:06:21;;;;;;;5.70;3.70;;;;;;;14.84;90.75;101975.22;4906987;29;19919;-72
2023/08/22 02:08:47;;;;;;;;;;;;;;;14.87;90.98;101963.88;4890519;29;20040;-70
2023/08/22 02:11:13;;;;;;;9.15;3.08;;;;;;;14.85;91.16;101947.16;4937504;29;20411;-71
2023/08/22 02:13:38;;;;;;;;;;;;;;;14.90;91.31;101927.47;4895452;29;20134;-71
2023/08/22 02:16:04;;;;;;;6.03;3.38;;;;;;;14.91;91.01;101911.03;4917640;29;19918;-71
2023/08/22 02:18:29;;;;;;;;;;;;;;;14.97;90.87;101909.97;4904426;29;20058;-72
2023/08/22 02:20:56;;;;;;;5.22;3.40;;;;;;;14.99;90.33;101912.38;4937467;29;19948;-73
2023/08/22 02:23:22;;;;;;;6.15;3.83;;;;;;;15.02;89.48;101901.84;4938652;29;20051;-73
2023/08/22 02:25:50;;;;;;;6.05;3.50;;;;;;;15.07;89.13;101905.63;4917278;29;20065;-72
2023/08/22 02:28:16;;;;;;;;;;;;;;;15.07;89.54;101925.31;4900423;29;20505;-72
2023/08/22 02:30:42;;;;;;;4.93;3.40;;;;;;;15.06;89.42;101923.69;4908916;29;19918;-72
2023/08/22 02:33:07;;;;;;;;;;;;;;;15.07;89.25;101913.72;4898428;29;20039;-72
2023/08/22 02:35:33;;;;;;;5.78;3.70;;;;;;;15.06;89.14;101914.81;4922722;29;19919;-72
2023/08/22 02:37:58;;;;;;;;;;;;;;;15.06;89.40;101933.69;4935804;28;20186;-72
2023/08/22 02:40:24;;;;;;;5.82;3.25;;;;;;;15.05;88.94;101937.47;4915714;29;19923;-72
2023/08/22 02:42:49;;;;;;;;;;;;;;;15.02;89.43;101928.81;4913176;29;20040;-72
2023/08/22 02:45:15;;;;;;;7.10;3.83;;;;;;;15.00;89.60;101914.81;4924886;29;19923;-73
2023/08/22 02:47:41;;;;;;;;;;;;;;;15.02;90.03;101906.44;4903097;29;20044;-73
2023/08/22 02:50:08;;;;;;;6.75;2.90;;;;;;;15.01;89.60;101916.41;4919924;29;19966;-72
2023/08/22 02:52:34;;;;;;;5.20;3.40;;;;;;;15.02;90.30;101928.81;4886713;29;20050;-72
2023/08/22 02:55:00;;;;;;;5.10;3.38;;;;;;;15.00;90.32;101938.28;4902883;29;20047;-70
2023/08/22 02:57:26;;;;;;;6.15;3.45;;;;;;;14.98;91.06;101949.34;4903149;29;20084;-72
2023/08/22 02:59:51;;;;;;;;;;;;;;;14.98;91.01;101953.94;4883005;29;20122;-72
2023/08/22 03:02:17;;;;;;;6.72;2.80;;;;;;;14.95;90.63;101949.84;4895654;29;20013;-72
2023/08/22 03:04:43;;;;;;;;;;;;;;;14.97;90.89;101958.50;4910468;29;20035;-72
2023/08/22 03:07:09;;;;;;;3.38;2.42;;;;;;;14.94;90.54;101953.63;4925122;29;19981;-71
2023/08/22 03:09:39;;;;;;;7.35;3.58;;;;;;;14.94;90.58;101932.06;4918929;29;20041;-70
2023/08/22 03:12:05;;;;;;;5.47;2.80;;;;;;;14.93;90.58;101925.06;4924581;29;20037;-73
2023/08/22 03:14:30;;;;;;;4.97;2.92;;;;;;;14.93;90.45;101935.84;4895461;29;20501;-71
2023/08/22 03:16:57;;;;;;;4.18;2.85;;;;;;;14.92;90.08;101950.41;4924826;29;20073;-72
2023/08/22 03:19:23;;;;;;;5.47;2.50;;;;;;;14.95;90.32;101949.84;4927546;29;20042;-72
2023/08/22 03:21:54;;;;;;;5.35;2.53;;;;;;;14.94;90.46;101945.53;4907010;29;20035;-70
2023/08/22 03:24:19;;;;;;;;;;;;;;;14.94;90.30;101942.84;4927172;29;20059;-72
2023/08/22 03:26:47;;;;;;;7.30;2.97;;;;;;;14.92;90.83;101922.63;4906950;29;19923;-73
2023/08/22 03:29:12;;;;;;;4.15;2.53;;;;;;;14.92;90.27;101917.25;4905917;29;20662;-72
2023/08/22 03:31:39;;;;;;;6.10;3.67;;;;;;;14.94;90.17;101923.16;4907304;29;20039;-70
2023/08/22 03:34:04;;;;;;;;;;;;;;;14.96;90.45;101926.38;4924639;29;20047;-72
2023/08/22 03:36:31;;;;;;;3.58;3.00;;;;;;;14.94;90.62;101920.47;4893615;29;19922;-72
2023/08/22 03:38:59;;;;;;;5.20;2.65;;;;;;;14.93;90.10;101930.44;4925387;29;20054;-72
2023/08/22 03:41:25;;;;;;;;;;;;;;;14.94;91.35;101934.75;4910131;29;20080;-70
2023/08/22 03:43:53;;;;;;;6.90;2.60;;;;;;;14.92;91.09;101928.84;4889039;29;19919;-71
2023/08/22 03:46:19;;;;;;;;;;;;;;;14.95;91.17;101927.47;4942747;29;20049;-72
2023/08/22 03:48:46;;;;;;;5.50;3.63;;;;;;;14.94;91.16;101923.97;4925842;28;19975;-72
2023/08/22 03:51:12;;;;;;;5.78;3.03;;;;;;;14.95;91.11;101917.50;4917071;29;20048;-72
2023/08/22 03:53:38;;;;;;;6.97;3.63;;;;;;;14.96;90.85;101908.31;4886437;28;20051;-73
2023/08/22 03:56:04;;;;;;;;;;;;;;;14.99;90.82;101917.78;4897652;29;20043;-71
2023/08/22 03:58:31;;;;;;;5.40;3.67;;;;;;;14.98;90.17;101916.16;4921231;28;19918;-73
2023/08/22 04:01:03;;;;;;;;;;;;;;;15.01;90.03;101932.59;4896007;29;20035;-71
2023/08/22 04:03:29;;;;;;;5.90;3.30;;;;;;;15.00;90.47;101927.47;4907189;29;19961;-73
2023/08/22 04:05:55;;;;;;;5.30;3.10;;;;;;;15.00;90.39;101916.69;4884369;29;20423;-72
2023/08/22 04:08:21;;;;;;;;;;;;;;;15.05;90.63;101915.88;4919277;29;20062;-71
2023/08/22 04:10:48;;;;;;;3.92;2.40;;;;;;;15.05;90.35;101915.88;4933647;29;19919;-71
2023/08/22 04:13:14;;;;;;;4.43;2.40;;;;;;;15.05;91.10;101914.00;4923608;29;20035;-71
2023/08/22 04:15:40;;;;;;;5.97;3.05;;;;;;;15.05;90.57;101913.19;4908657;29;20162;-71
2023/08/22 04:18:06;;;;;;;7.03;2.75;;;;;;;15.05;90.26;101902.41;4901690;29;20085;-73
2023/08/22 04:20:32;;;;;;;;;;;;;;;15.07;91.15;101906.44;4883183;29;20502;-70
2023/08/22 04:22:58;;;;;;;6.97;3.20;;;;;;;15.03;91.09;101911.53;4895996;29;20424;-70
2023/08/22 04:25:23;;;;;;;;;;;;;;;15.06;90.86;101928.28;4906723;29;20043;-71
2023/08/22 04:27:49;;;;;;;4.78;2.58;;;;;;;15.02;90.83;101934.22;4890549;29;19926;-72
2023/08/22 04:30:15;;;;;;;;;;;;;;;15.05;90.88;101934.78;4908089;29;20210;-71
2023/08/22 04:32:40;;;;;;;5.40;3.65;;;;;;;15.06;90.97;101917.50;4918441;29;19930;-73
2023/08/22 04:35:07;;;;;;;5.13;2.65;;;;;;;15.07;89.92;101917.22;4928211;29;20035;-73
2023/08/22 04:37:36;;;;;;;5.10;3.13;;;;;;;15.10;89.98;101907.78;4904330;29;20043;-72
2023/08/22 04:40:03;;;;;;;6.60;3.20;;;;;;;15.14;89.67;101903.47;4903283;29;20393;-73
2023/08/22 04:42:43;;;;;;;7.70;3.22;;;;;;;15.19;90.23;101900.75;4918467;29;20512;-73
2023/08/22 04:45:10;;;;;;;4.05;2.40;;;;;;;15.19;89.67;101900.75;4898764;29;20074;-73
2023/08/22 04:47:35;;;;;;;;;;;;;;;15.20;89.28;101905.06;4894491;29;20122;-72
2023/08/22 04:50:01;;;;;;;4.47;2.30;;;;;;;15.20;88.99;101899.69;4927991;29;21059;-73
2023/08/22 04:52:27;;;;;;;;;;;;;;;15.25;89.18;101894.28;4906435;29;20758;-72
2023/08/22 04:54:55;;;;;;;5.65;2.67;;;;;;;15.24;89.87;101893.47;4925241;29;19914;-73
2023/08/22 04:57:23;;;;;;;6.65;3.05;;;;;;;15.21;89.79;101896.69;4925337;29;20203;-74
2023/08/22 04:59:52;;;;;;;6.93;3.35;;;;;;;15.21;90.00;101891.31;4918952;29;20036;-71
2023/08/22 05:02:18;;;;;;;5.72;2.97;;;;;;;15.22;89.83;101894.81;4905885;29;20087;-71
2023/08/22 05:04:44;;;;;;;5.97;3.30;;;;;;;15.23;91.12;101897.22;4883223;29;20556;-71
2023/08/22 05:07:12;;;;;;;4.13;2.60;;;;;;;15.24;91.15;101903.44;4914573;29;20094;-71
2023/08/22 05:09:38;;;;;;;4.70;3.03;;;;;;;15.25;90.86;101905.88;4922638;29;20058;-72
2023/08/22 05:12:04;;;;;;;5.28;2.63;;;;;;;15.25;90.54;101905.88;4918008;29;20047;-73
2023/08/22 05:14:32;;;;;;;;;;;;;;;15.25;90.75;101894.28;4912519;29;20055;-73
2023/08/22 05:16:58;;;;;;;6.32;2.70;;;;;;;15.24;90.52;101895.34;4918019;29;19925;-72
2023/08/22 05:19:24;;;;;;;6.03;2.83;;;;;;;15.25;90.25;101894.28;4911103;29;20039;-73
2023/08/22 05:21:49;;;;;;;;;;;;;;;15.27;90.55;101895.59;4891239;29;20031;-72
2023/08/22 05:24:16;;;;;;;4.45;2.75;;;;;;;15.23;90.36;101897.22;4891676;29;19922;-72
2023/08/22 05:26:41;;;;;;;;;;;;;;;15.25;90.17;101894.28;4896109;29;20614;-72
2023/08/22 05:29:07;;;;;;;4.15;2.83;;;;;;;15.24;90.15;101884.53;4926347;29;19925;-73
2023/08/22 05:31:33;;;;;;;6.20;3.05;;;;;;;15.26;89.98;101890.50;4910987;29;20035;-71
2023/08/22 05:34:00;;;;;;;4.90;2.85;;;;;;;15.29;90.65;101900.72;4910764;29;20043;-72
2023/08/22 05:36:26;;;;;;;;;;;;;;;15.29;90.27;101908.81;4904834;29;20214;-72
2023/08/22 05:38:51;;;;;;;5.22;2.70;;;;;;;15.30;90.76;101907.75;4896138;29;19922;-71
2023/08/22 05:41:17;;;;;;;;;;;;;;;15.30;90.73;101913.94;4889760;29;20588;-72
2023/08/22 05:43:43;;;;;;;6.55;3.10;;;;;;;15.30;90.91;101907.75;4895584;29;19918;-73
2023/08/22 05:46:09;;;;;;;;;;;;;;;15.34;90.31;101913.41;4914048;29;20035;-73
2023/08/22 05:48:34;;;;;;;6.00;2.95;;;;;;;15.35;90.00;101915.03;4915247;29;19915;-73
2023/08/22 05:51:02;;;;;;;;;;;;;;;15.36;90.84;101906.66;4919649;29;20500;-71
2023/08/22 05:53:28;;;;;;;5.28;2.83;;;;;;;15.38;90.22;101912.59;4938691;29;19918;-73
2023/08/22 05:55:55;;;;;;;5.22;3.03;;;;;;;15.44;90.22;101905.28;4907422;29;20122;-72
2023/08/22 05:58:21;;;;;;;4.03;2.80;;;;;;;15.48;90.42;101904.47;4920316;29;20039;-75
2023/08/22 06:00:47;;;;;;;;;;;;;;;15.53;90.84;101906.34;4892676;29;20040;-72
2023/08/22 06:03:13;;;;;;;4.15;2.97;;;;;;;15.56;89.79;101901.19;4904411;29;19918;-72
2023/08/22 06:05:40;;;;;;;6.93;3.42;;;;;;;15.62;88.96;101890.41;4909224;29;20040;-70
2023/08/22 06:08:05;;;;;;;;;;;;;;;15.66;88.47;101889.59;4913021;29;20042;-73
2023/08/22 06:10:31;;;;;;;8.20;2.45;;;;;;;15.70;87.97;101889.84;4924022;29;19930;-73
2023/08/22 06:12:56;;;;;;;;;;;;;;;15.73;87.57;101889.31;4930430;29;20035;-73
2023/08/22 06:15:22;;;;;;;4.50;2.30;;;;;;;15.74;87.71;101880.94;4925219;29;19922;-73
2023/08/22 06:17:48;;;;;;;5.15;2.97;;;;;;;15.78;89.02;101889.28;4934112;29;20144;-73
2023/08/22 06:20:15;;;;;;;;;;;;;;;15.80;88.75;101881.72;4922381;29;20114;-72
2023/08/22 06:22:41;;;;;;;5.55;3.05;;;;;;;15.79;88.71;101888.22;4943787;29;19922;-72
2023/08/22 06:25:07;;;;;;;;;;;;;;;15.79;88.00;101894.41;4913391;29;20089;-71
2023/08/22 06:27:33;;;;;;;6.63;2.83;;;;;;;15.80;87.64;101889.81;4943467;29;19922;-70
2023/08/22 06:30:00;;;;;;;6.80;2.83;;;;;;;15.84;87.21;101890.88;4902946;29;20666;-72
2023/08/22 06:32:29;;;;;;;3.75;2.65;;;;;;;15.90;86.77;101894.34;4930259;28;20075;-73
2023/08/22 06:34:59;;;;;;;6.43;2.72;;;;;;;15.91;86.82;101888.66;4892046;29;20146;-70
2023/08/22 06:37:25;;;;;;;7.00;2.60;;;;;;;15.93;86.30;101886.53;4908647;29;20103;-70
2023/08/22 06:39:52;;;;;;;6.30;3.22;;;;;;;15.95;86.46;101887.03;4879067;29;20178;-72
2023/08/22 06:42:18;;;;;;;4.88;2.72;;;;;;;15.98;86.85;101891.88;4928553;29;20031;-73
2023/08/22 06:44:48;;;;;;;7.22;3.33;;;;;;;15.99;86.75;101900.81;4926555;29;20059;-74
2023/08/22 06:47:16;;;;;;;5.82;2.40;;;;;;;16.00;86.14;101895.13;4927314;29;20049;-72
2023/08/22 06:49:42;;;;;;;5.63;3.40;;;;;;;16.05;87.43;101897.81;4925556;29;20054;-73
2023/08/22 06:52:07;;;;;;;4.18;2.42;;;;;;;16.13;87.03;101899.13;4924093;29;20101;-73
2023/08/22 06:54:33;;;;;;;3.90;2.90;;;;;;;16.30;85.91;101901.44;4926851;29;20046;-72
2023/08/22 06:56:59;;;;;;;3.80;2.70;;;;;;;16.44;85.68;101898.91;4912120;29;20031;-71
2023/08/22 06:59:25;;;;;;;3.90;2.30;;;;;;;16.51;85.17;101892.09;4926942;29;20031;-72
2023/08/22 07:01:50;;;;;;;4.50;2.90;;;;;;;16.57;84.01;101890.19;4919208;28;20142;-71
2023/08/22 07:04:16;;;;;;;3.78;2.70;;;;;;;16.66;84.27;101885.78;4938974;29;20827;-72
2023/08/22 07:06:43;;;;;;;4.32;3.08;;;;;;;16.75;83.97;101886.03;4936548;29;20069;-71
2023/08/22 07:09:09;;;;;;;5.00;2.80;;;;;;;16.81;84.00;101883.00;4911054;29;20050;-72
2023/08/22 07:11:34;;;;;;;5.88;2.80;;;;;;;16.86;83.73;101890.25;4911253;29;20097;-71
2023/08/22 07:14:00;;;;;;;3.80;2.47;;;;;;;16.91;83.60;101887.50;4912790;29;20402;-71
2023/08/22 07:16:26;;;;;;;3.15;2.33;;;;;;;17.02;85.03;101888.22;4912593;29;20493;-72
2023/08/22 07:18:53;;;;;;;7.78;2.75;;;;;;;17.12;83.43;101880.00;4942933;28;20035;-72
2023/08/22 07:21:19;;;;;;;4.88;2.15;;;;;;;17.25;82.37;101890.16;4904666;29;20031;-73
2023/08/22 07:23:45;;;;;;;5.53;2.53;;;;;;;17.41;82.04;101888.09;4924958;29;20776;-73
2023/08/22 07:26:11;;;;;;;4.53;2.70;;;;;;;17.55;80.99;101880.09;4907818;29;20485;-72
2023/08/22 07:28:37;;;;;;;3.40;2.60;;;;;;;17.66;81.08;101879.66;4888770;29;20059;-72
2023/08/22 07:31:03;;;;;;;7.80;2.60;;;;;;;17.85;81.24;101874.31;4939023;29;20504;-73
2023/08/22 07:33:31;;;;;;;4.25;2.10;;;;;;;18.02;78.76;101868.41;4926460;29;20039;-72
2023/08/22 07:35:57;;;;;;;5.38;2.67;;;;;;;18.22;79.21;101875.44;4900262;29;20281;-72
2023/08/22 07:38:22;;;;;;;6.55;2.40;;;;;;;18.39;78.78;101866.78;4922669;29;20517;-71
2023/08/22 07:40:48;;;;;;;5.53;2.63;;;;;;;18.61;78.15;101868.88;4907646;29;20055;-73
2023/08/22 07:43:14;;;;;;;5.72;1.77;;;;;;;18.75;76.77;101873.28;4924791;29;20046;-73
2023/08/22 07:45:39;;;;;;;4.45;1.75;;;;;;;18.90;76.07;101879.53;4923101;29;20039;-71
2023/08/22 07:48:05;;;;;;;4.25;2.20;;;;;;;19.04;76.47;101877.69;4914249;29;20702;-71
2023/08/22 07:50:31;;;;;;;3.97;2.00;;;;;;;19.25;75.79;101870.78;4924725;29;20042;-74
2023/08/22 07:52:58;;;;;;;4.45;2.53;;;;;;;19.38;75.04;101871.88;4904949;28;20051;-71
2023/08/22 07:55:24;;;;;;;4.93;1.67;;;;;;;19.54;74.72;101864.22;4943209;29;20039;-74
2023/08/22 07:57:50;;;;;;;3.00;2.38;;;;;;;19.74;73.51;101858.41;4910681;29;20106;-73
2023/08/22 08:00:18;;;;;;;4.90;1.90;;;;;;;19.97;73.73;101858.47;4924802;29;20041;-72
2023/08/22 08:02:45;;;;;;;3.28;2.03;;;;;;;20.11;73.05;101861.94;4912587;29;20583;-71
2023/08/22 08:05:12;;;;;;;6.13;2.13;;;;;;;20.19;72.10;101869.41;4912808;29;20035;-74
2023/08/22 08:07:39;;;;;;;3.80;1.83;;;;;;;20.29;71.63;101860.19;4938283;29;20046;-73
2023/08/22 08:10:06;;;;;;;3.92;1.75;;;;;;;20.36;70.45;101864.06;4904919;29;20027;-75
2023/08/22 08:12:32;;;;;;;4.20;1.80;;;;;;;20.54;69.72;101864.25;4908812;29;20070;-72
2023/08/22 08:14:58;;;;;;;3.70;2.00;;;;;;;20.59;71.55;101864.94;4925282;29;20039;-74
2023/08/22 08:17:25;;;;;;;3.97;1.73;;;;;;;20.65;69.68;101873.75;4911022;29;20035;-72
2023/08/22 08:19:51;;;;;;;5.55;2.15;;;;;;;20.67;69.47;101875.06;4942256;28;20102;-72
2023/08/22 08:22:17;;;;;;;2.90;1.65;;;;;;;20.72;68.69;101879.56;4898058;29;20035;-73
2023/08/22 08:24:43;;;;;;;2.53;1.52;;;;;;;20.70;69.01;101873.63;4927496;29;20122;-74
2023/08/22 08:27:09;;;;;;;3.42;1.80;;;;;;;20.80;69.46;101881.56;4898683;29;20118;-74
2023/08/22 08:29:34;;;;;;;6.32;2.28;;;;;;;20.97;68.10;101878.13;4926904;29;20059;-72
2023/08/22 08:32:00;;;;;;;4.63;1.83;;;;;;;21.16;68.06;101869.72;4930857;29;20065;-74
2023/08/22 08:34:26;;;;;;;5.07;1.42;;;;;;;21.26;67.70;101877.59;4933702;29;20532;-73
2023/08/22 08:36:52;;;;;;;3.72;1.95;;;;;;;21.43;67.90;101871.47;4911385;29;20054;-72
2023/08/22 08:39:18;;;;;;;4.28;1.92;;;;;;;21.44;67.53;101879.31;4912705;29;20046;-71
2023/08/22 08:41:59;;;;;;;5.05;1.58;;;;;;;21.52;72.37;101870.34;4946994;29;20496;-74
2023/08/22 08:44:28;;;;;;;5.63;1.45;;;;;;;21.65;68.15;101863.19;4905974;29;20036;-72
2023/08/22 08:46:55;;;;;;;2.58;1.70;;;;;;;21.80;68.33;101868.19;4932706;28;20039;-71
2023/08/22 08:49:22;;;;;;;6.22;1.77;;;;;;;21.96;69.15;101865.00;4918268;29;20036;-75
2023/08/22 08:51:48;;;;;;;4.32;1.77;;;;;;;22.07;66.95;101875.25;4895847;29;20557;-72
2023/08/22 08:54:15;;;;;;;4.53;1.65;;;;;;;22.22;69.20;101870.50;4911607;29;20035;-72
2023/08/22 08:56:41;;;;;;;3.05;1.35;;;;;;;22.30;67.95;101875.16;4936967;29;20035;-72
2023/08/22 08:59:07;;;;;;;5.43;1.90;;;;;;;22.35;67.30;101877.72;4924528;29;20038;-70
2023/08/22 09:01:34;;;;;;;4.78;1.83;;;;;;;22.48;64.24;101875.94;4890951;29;20054;-71
2023/08/22 09:04:00;;;;;;;2.92;1.50;;;;;;;22.60;64.01;101874.16;4907089;29;20115;-72
2023/08/22 09:06:26;;;;;;;2.80;1.52;;;;;;;22.64;64.09;101873.53;4918842;29;20039;-72
2023/08/22 09:09:07;;;;;;;3.72;1.92;;;;;;;22.73;65.11;101868.84;4942059;28;20504;-70
2023/08/22 09:11:33;;;;;;;3.97;1.50;;;;;;;22.82;64.68;101873.13;4927206;29;20035;-75
2023/08/22 09:13:59;;;;;;;3.30;1.90;;;;;;;22.83;67.55;101871.25;4895230;29;20047;-71
2023/08/22 09:16:26;;;;;;;4.15;1.65;;;;;;;22.80;64.09;101869.94;4895315;29;20039;-72
2023/08/22 09:18:56;;;;;;;4.70;1.95;;;;;;;22.80;65.90;101871.88;4944658;28;20588;-72
2023/08/22 09:21:22;;;;;;;3.80;1.58;;;;;;;22.86;66.07;101871.41;4906812;29;20509;-74
2023/08/22 09:23:49;;;;;;;3.70;1.55;;;;;;;22.94;67.40;101867.03;4916308;29;20874;-74
2023/08/22 09:26:22;;;;;;;3.13;1.70;;;;;;;23.08;70.17;101872.31;4931324;29;20086;-73
2023/08/22 09:28:48;;;;;;;2.80;1.60;;;;;;;23.06;66.13;101863.63;4945376;29;20086;-75
2023/08/22 09:31:24;;;;;;;2.97;1.27;;;;;;;23.06;64.29;101869.91;4937971;29;20035;-72
2023/08/22 09:33:51;;;;;;;2.85;1.65;;;;;;;23.07;70.15;101865.25;4921605;29;20051;-71
2023/08/22 09:36:20;;;;;;;5.65;1.83;;;;;;;23.04;67.62;101863.97;4914113;29;20039;-73
2023/08/22 09:38:51;;;;;;;4.15;1.80;;;;;;;23.07;66.44;101866.03;4929210;29;20420;-75
2023/08/22 09:41:28;;;;;;;5.28;2.00;;;;;;;23.20;66.60;101863.44;4921551;29;20497;-71
2023/08/22 09:44:00;;;;;;;5.13;1.77;;;;;;;23.31;63.92;101864.66;4906419;29;20047;-73
2023/08/22 09:46:27;;;;;;;2.95;1.50;;;;;;;23.43;62.14;101862.81;4897297;29;20047;-72
2023/08/22 09:48:56;;;;;;;3.53;1.70;;;;;;;23.51;68.21;101866.66;4929168;29;20134;-71
2023/08/22 09:51:25;;;;;;;5.30;1.80;;;;;;;23.49;68.54;101871.63;4926681;29;20039;-71
2023/08/22 09:53:59;;;;;;;4.55;1.85;;;;;;;23.50;66.60;101867.75;4920949;29;20500;-74
2023/08/22 09:56:26;;;;;;;3.50;1.83;;;;;;;23.52;66.49;101865.53;4906981;29;20043;-73
2023/08/22 09:58:52;;;;;;;5.00;1.70;;;;;;;23.58;68.25;101857.94;4896583;29;20043;-73
2023/08/22 10:01:19;;;;;;;3.88;1.70;;;;;;;23.57;67.85;101857.13;4908453;29;20852;-72
2023/08/22 10:03:47;;;;;;;5.30;2.20;;;;;;;23.60;69.86;101851.00;4904877;29;20031;-72
2023/08/22 10:06:14;;;;;;;4.00;1.60;;;;;;;23.54;63.17;101848.78;4913763;29;20055;-71
2023/08/22 10:08:45;;;;;;;5.57;1.70;;;;;;;23.55;68.81;101856.66;4911068;29;20070;-73
2023/08/22 10:11:13;;;;;;;5.43;1.70;;;;;;;23.50;68.85;101862.28;4930392;29;20031;-72
2023/08/22 10:13:40;;;;;;;4.93;1.90;;;;;;;23.40;65.63;101862.69;4934237;29;20499;-74
2023/08/22 10:16:07;;;;;;;4.75;2.05;;;;;;;23.28;69.30;101863.38;4925786;29;20716;-73
2023/08/22 10:18:33;;;;;;;5.45;2.00;;;;;;;23.24;70.62;101861.66;4928858;28;20545;-71
2023/08/22 10:21:01;;;;;;;4.28;1.88;;;;;;;23.14;68.22;101860.06;4930438;29;20490;-74
2023/08/22 10:23:51;;;;;;;4.32;1.60;;;;;;;23.13;69.46;101869.41;4910859;29;20549;-73
2023/08/22 10:26:21;;;;;;;2.97;1.67;;;;;;;23.11;68.01;101867.00;4911739;29;20047;-73
2023/08/22 10:29:12;;;;;;;4.25;2.20;;;;;;;23.15;71.26;101861.66;4912312;29;20043;-72
2023/08/22 10:32:00;;;;;;;3.63;1.95;;;;;;;23.26;71.84;101856.66;4945220;29;20039;-72
2023/08/22 10:34:49;;;;;;;4.53;1.80;;;;;;;23.39;70.95;101855.63;4902566;29;20043;-71
2023/08/22 10:37:17;;;;;;;4.05;1.60;;;;;;;23.53;65.04;101847.97;4883216;29;20566;-71
2023/08/22 10:39:47;;;;;;;6.68;2.15;;;;;;;23.74;65.78;101849.97;4896177;29;20559;-71
2023/08/22 10:42:13;;;;;;;5.53;2.22;;;;;;;23.87;68.04;101849.72;4895513;29;20050;-72
2023/08/22 10:44:42;;;;;;;3.97;1.92;;;;;;;24.01;68.24;101849.44;4910232;29;20051;-71
2023/08/22 10:47:27;;;;;;;4.65;2.67;;;;;;;24.13;62.13;101845.97;4923659;29;20035;-75
2023/08/22 10:49:55;;;;;;;4.82;2.22;;;;;;;24.21;66.94;101837.69;4923359;29;20118;-75
2023/08/22 10:52:37;;;;;;;5.47;1.88;;;;;;;24.27;64.74;101840.22;4940970;29;20031;-72
2023/08/22 10:55:03;;;;;;;5.50;2.50;;;;;;;24.35;60.46;101847.59;4906299;29;20031;-72
2023/08/22 10:57:33;;;;;;;7.93;2.53;;;;;;;24.33;63.34;101838.88;4913629;29;20035;-74
2023/08/22 11:00:17;;;;;;;5.50;2.63;;;;;;;24.38;64.89;101842.22;4911394;29;20051;-74
2023/08/22 11:02:43;;;;;;;5.35;1.95;;;;;;;24.35;61.68;101847.59;4928329;29;20085;-74
2023/08/22 11:05:11;;;;;;;5.60;3.10;;;;;;;24.30;60.33;101839.53;4934398;29;20047;-72
2023/08/22 11:07:42;;;;;;;6.97;2.30;;;;;;;24.45;65.73;101849.88;4927559;29;20043;-75
2023/08/22 11:10:11;;;;;;;;;;;;;;;24.47;60.97;101850.38;4924112;29;20051;-72
2023/08/22 11:12:38;;;;;;;6.80;2.35;;;;;;;24.58;63.99;101829.63;4922898;29;19925;-74
2023/08/22 11:15:04;;;;;;;4.45;2.28;;;;;;;24.65;60.68;101846.31;4908674;29;20517;-72
2023/08/22 11:17:30;;;;;;;5.18;2.63;;;;;;;24.63;62.97;101836.84;4911817;29;20074;-74
2023/08/22 11:19:57;;;;;;;4.68;2.10;;;;;;;24.70;63.78;101842.56;4924738;29;20198;-73
2023/08/22 11:22:23;;;;;;;6.43;2.42;;;;;;;24.80;62.70;101836.66;4920633;29;20027;-71
2023/08/22 11:24:52;;;;;;;4.78;2.22;;;;;;;24.88;59.95;101848.66;4904348;29;20157;-73
2023/08/22 11:27:18;;;;;;;6.55;2.45;;;;;;;24.82;59.53;101850.00;4920087;29;20045;-72
2023/08/22 11:29:50;;;;;;;5.28;2.50;;;;;;;25.00;62.87;101837.72;4909984;29;20125;-72
2023/08/22 11:32:25;;;;;;;6.53;2.40;;;;;;;25.18;63.22;101847.31;4925990;29;20050;-71
2023/08/22 11:34:54;;;;;;;4.88;2.22;;;;;;;25.25;61.25;101841.28;4928230;29;20058;-71
2023/08/22 11:37:21;;;;;;;6.25;2.00;;;;;;;25.15;58.33;101831.59;4935398;29;20034;-71